Time;durP1;ratioP1;P1;durP2;ratioP2;P2;SDS_P1;SDS_P2;PMS_P1;PMS_P2;Temp;Humidity;BMP_temperature;BMP_pressure;BME280_temperature;BME280_humidity;BME280_pressure;Samples;Min_cycle;Max_cycle;Signal;HPM_P1;HPM_P2
2024/04/21 00:00:07;;;;;;;8.80;1.35;;;6.10;1.00;;;;;;22196988;26;20008;-78
2024/04/21 00:10:09;;;;;;;10.55;1.48;;;6.20;1.00;;;;;;22190742;26;20035;-77
2024/04/21 00:20:11;;;;;;;7.85;1.40;;;6.10;1.00;;;;;;22171977;26;20085;-77
2024/04/21 00:30:12;;;;;;;6.03;0.88;;;5.80;1.00;;;;;;22149096;26;20077;-77
2024/04/21 00:40:13;;;;;;;8.38;1.15;;;5.70;1.00;;;;;;22126331;26;20326;-78
2024/04/21 00:50:14;;;;;;;8.75;1.10;;;5.70;1.00;;;;;;22133232;26;20022;-78
2024/04/21 01:00:17;;;;;;;7.78;1.55;;;5.50;1.00;;;;;;22139959;26;20356;-74
2024/04/21 01:10:18;;;;;;;7.68;1.42;;;5.30;1.00;;;;;;22172500;26;20660;-76
2024/04/21 01:20:21;;;;;;;8.10;1.08;;;5.20;1.00;;;;;;22183648;26;20556;-75
2024/04/21 01:30:22;;;;;;;9.98;1.10;;;5.00;1.00;;;;;;22169552;26;20035;-74
2024/04/21 01:40:23;;;;;;;12.25;1.50;;;5.10;1.00;;;;;;22181455;26;20008;-75
2024/04/21 01:50:25;;;;;;;6.43;1.08;;;5.10;1.00;;;;;;22180209;26;20004;-76
2024/04/21 02:00:26;;;;;;;6.38;0.93;;;5.00;1.00;;;;;;22181893;26;20150;-74
2024/04/21 02:10:27;;;;;;;6.97;1.77;;;4.80;1.00;;;;;;22173283;26;20089;-74
2024/04/21 02:20:29;;;;;;;6.03;0.90;;;4.80;1.00;;;;;;22147274;26;20641;-74
2024/04/21 02:40:41;;;;;;;6.22;1.02;;;4.60;1.00;;;;;;22976648;21;22159;-78
2024/04/21 02:50:41;;;;;;;9.20;0.98;;;4.70;1.00;;;;;;21980249;26;20686;-75
2024/04/21 03:00:42;;;;;;;2.80;1.00;;;4.80;1.00;;;;;;21974698;26;20044;-76
2024/04/21 03:10:45;;;;;;;3.58;0.73;;;5.10;11.00;;;;;;21942017;26;20025;-76
2024/04/21 03:20:59;;;;;;;4.75;1.10;;;4.50;26.60;;;;;;21991789;26;20011;-76
2024/04/21 03:31:01;;;;;;;2.33;0.45;;;4.20;52.70;;;;;;21986746;26;22116;-75
2024/04/21 03:41:03;;;;;;;4.43;0.88;;;3.90;85.60;;;;;;21860707;26;20010;-75
2024/04/21 03:51:05;;;;;;;9.95;1.60;;;3.80;99.80;;;;;;21837304;26;20010;-78
2024/04/21 04:01:07;;;;;;;7.40;1.10;;;3.70;99.90;;;;;;21886853;26;20020;-78
2024/04/21 04:11:08;;;;;;;7.53;1.10;;;3.70;99.90;;;;;;21853032;26;20005;-77
2024/04/21 04:21:08;;;;;;;4.85;0.88;;;3.80;99.90;;;;;;21872740;26;20008;-78
2024/04/21 04:31:09;;;;;;;6.43;0.88;;;4.00;99.90;;;;;;21842304;26;20042;-78
2024/04/21 04:41:10;;;;;;;6.25;0.80;;;4.10;99.90;;;;;;21851000;26;20008;-77
2024/04/21 04:51:11;;;;;;;4.00;0.70;;;4.60;99.90;;;;;;21883981;26;20345;-78
2024/04/21 05:01:12;;;;;;;8.27;1.20;;;4.90;85.60;;;;;;21871971;26;20014;-78
2024/04/21 05:11:13;;;;;;;5.88;0.70;;;5.00;58.50;;;;;;21861660;26;20818;-78
2024/04/21 05:21:16;;;;;;;4.60;0.70;;;5.20;39.10;;;;;;21830779;26;21370;-77
2024/04/21 05:31:17;;;;;;;2.13;0.50;;;5.20;24.40;;;;;;21915923;26;20484;-80
2024/04/21 05:41:18;;;;;;;2.45;0.52;;;5.20;14.00;;;;;;21811205;26;20047;-77
2024/04/21 05:51:19;;;;;;;2.33;0.60;;;4.90;14.00;;;;;;21723287;27;20426;-78
2024/04/21 06:01:20;;;;;;;1.33;0.45;;;4.90;20.90;;;;;;21691648;27;20318;-77
2024/04/21 06:11:21;;;;;;;2.65;0.60;;;4.90;21.00;;;;;;21722755;27;21984;-77
2024/04/21 06:21:22;;;;;;;2.15;0.60;;;4.90;20.40;;;;;;21728244;27;20368;-77
2024/04/21 06:31:23;;;;;;;2.83;0.70;;;5.10;24.20;;;;;;21725723;27;20014;-77
2024/04/21 06:41:24;;;;;;;5.80;0.88;;;5.10;21.30;;;;;;21730345;27;20349;-78
2024/04/21 06:51:25;;;;;;;3.15;0.80;;;5.30;18.10;;;;;;21704424;27;20017;-78
2024/04/21 07:01:26;;;;;;;3.97;0.85;;;5.40;17.90;;;;;;21729396;27;20012;-78
2024/04/21 07:11:27;;;;;;;3.38;0.95;;;5.70;15.30;;;;;;21718566;27;20076;-78
2024/04/21 07:21:28;;;;;;;5.47;0.93;;;6.10;1.00;;;;;;21703667;27;20014;-79
2024/04/21 07:31:30;;;;;;;5.18;1.10;;;6.20;1.00;;;;;;21705134;27;20355;-82
2024/04/21 07:41:31;;;;;;;6.25;1.48;;;6.40;1.00;;;;;;21695271;27;1000915;-82
2024/04/21 07:51:32;;;;;;;5.90;0.95;;;6.50;1.00;;;;;;21693645;27;20241;-79
2024/04/21 08:01:33;;;;;;;9.73;1.10;;;6.70;1.00;;;;;;21734464;27;20038;-78
2024/04/21 08:11:34;;;;;;;7.22;1.23;;;6.90;1.00;;;;;;21702052;27;20079;-82
2024/04/21 08:21:35;;;;;;;7.30;1.20;;;7.20;1.00;;;;;;21738143;27;20007;-82
2024/04/21 08:31:36;;;;;;;6.88;1.17;;;7.40;1.00;;;;;;21672060;27;22634;-79
2024/04/21 08:41:41;;;;;;;3.28;0.90;;;8.00;1.00;;;;;;21738839;26;20100;-78
2024/04/21 08:51:44;;;;;;;4.53;0.85;;;8.20;1.00;;;;;;21704241;27;20006;-78
2024/04/21 09:01:45;;;;;;;6.07;0.98;;;8.60;1.00;;;;;;21728813;27;20105;-81
2024/04/21 09:11:46;;;;;;;5.35;0.88;;;9.10;1.00;;;;;;21715992;27;20003;-78
2024/04/21 09:21:47;;;;;;;4.43;0.90;;;9.50;1.00;;;;;;21736527;27;20077;-77
2024/04/21 09:31:48;;;;;;;4.45;0.90;;;9.80;1.00;;;;;;21710683;27;20014;-77
2024/04/21 09:41:53;;;;;;;3.92;0.90;;;10.30;1.00;;;;;;21706329;27;20022;-76
2024/04/21 09:51:55;;;;;;;3.20;1.20;;;10.20;1.00;;;;;;21707877;27;20007;-77
2024/04/21 10:01:59;;;;;;;4.45;1.02;;;10.00;1.00;;;;;;21724283;27;20009;-79
2024/04/21 10:12:00;;;;;;;4.28;0.95;;;10.10;1.00;;;;;;21702845;27;20014;-77
2024/04/21 10:22:04;;;;;;;4.18;0.98;;;10.50;1.00;;;;;;21711590;27;20407;-77
2024/04/21 10:32:15;;;;;;;3.45;1.00;;;11.00;1.00;;;;;;21673330;27;20007;-77
2024/04/21 10:42:16;;;;;;;3.35;0.88;;;11.50;1.00;;;;;;21671765;27;20021;-77
2024/04/21 10:52:18;;;;;;;3.13;0.88;;;11.80;1.00;;;;;;21703200;27;20564;-78
2024/04/21 11:02:19;;;;;;;3.17;1.00;;;12.10;1.00;;;;;;21678758;27;20013;-76
2024/04/21 11:12:21;;;;;;;2.75;0.90;;;12.20;1.00;;;;;;21671711;27;20018;-74
2024/04/21 11:22:22;;;;;;;3.03;1.02;;;11.90;1.00;;;;;;21711691;27;20025;-78
2024/04/21 11:32:23;;;;;;;2.05;0.90;;;12.70;1.00;;;;;;21719593;27;20081;-78
2024/04/21 11:42:24;;;;;;;1.92;0.68;;;13.30;1.00;;;;;;21784666;26;20457;-77
2024/04/21 11:52:25;;;;;;;3.72;1.13;;;12.80;1.00;;;;;;21827856;26;20010;-75
2024/04/21 12:02:26;;;;;;;1.70;0.88;;;12.20;1.00;;;;;;21859341;26;20017;-76
2024/04/21 12:12:27;;;;;;;2.42;0.80;;;13.00;1.00;;;;;;21840101;26;20009;-77
2024/04/21 12:22:28;;;;;;;1.58;0.80;;;12.70;1.00;;;;;;21839740;26;19998;-76
2024/04/21 12:32:29;;;;;;;1.83;0.88;;;13.80;1.00;;;;;;21860909;26;20065;-79
2024/04/21 12:42:30;;;;;;;3.45;1.05;;;13.00;1.00;;;;;;21856990;26;20010;-78
2024/04/21 12:52:33;;;;;;;4.35;1.10;;;13.60;1.00;;;;;;21868299;26;20028;-80
2024/04/21 13:02:34;;;;;;;4.63;1.00;;;13.30;1.00;;;;;;21835868;26;20005;-78
2024/04/21 13:12:35;;;;;;;2.97;0.95;;;13.20;1.00;;;;;;21836730;26;20025;-79
2024/04/21 13:22:36;;;;;;;2.50;1.10;;;12.40;1.00;;;;;;21850822;26;20114;-79
2024/04/21 13:32:38;;;;;;;3.10;1.25;;;11.90;1.00;;;;;;21876650;26;20473;-78
2024/04/21 13:42:39;;;;;;;2.42;1.10;;;13.30;1.00;;;;;;21748018;26;21807;-78
2024/04/21 13:52:40;;;;;;;2.55;1.05;;;14.50;1.00;;;;;;21694006;27;20392;-79
2024/04/21 14:02:41;;;;;;;2.97;1.00;;;14.40;1.00;;;;;;21736150;27;20051;-78
2024/04/21 14:12:42;;;;;;;2.15;0.90;;;13.90;1.00;;;;;;21752572;27;20018;-79
2024/04/21 14:22:43;;;;;;;3.33;1.00;;;13.50;1.00;;;;;;21734826;27;20025;-79
2024/04/21 14:32:44;;;;;;;3.70;1.00;;;12.90;1.00;;;;;;21705028;27;20014;-77
2024/04/21 14:42:45;;;;;;;4.10;0.70;;;13.20;1.00;;;;;;21875261;26;20024;-81
2024/04/21 14:52:51;;;;;;;1.35;0.65;;;13.10;1.00;;;;;;21859789;26;19997;-78
2024/04/21 15:02:53;;;;;;;1.98;0.70;;;12.90;1.00;;;;;;21886201;26;20037;-77
2024/04/21 15:12:56;;;;;;;3.10;0.77;;;12.70;1.00;;;;;;21885032;26;19998;-78
2024/04/21 15:22:57;;;;;;;1.48;0.57;;;12.10;1.00;;;;;;21878653;26;20006;-78
2024/04/21 15:32:58;;;;;;;0.70;0.35;;;11.40;1.00;;;;;;21864071;26;20021;-77
2024/04/21 15:42:59;;;;;;;0.70;0.20;;;11.00;1.00;;;;;;21724696;27;20014;-78
2024/04/21 15:53:01;;;;;;;1.75;0.60;;;10.70;1.00;;;;;;21720082;27;19998;-77
2024/04/21 16:03:03;;;;;;;1.45;0.70;;;10.80;1.00;;;;;;21731930;27;20461;-80
2024/04/21 16:13:04;;;;;;;2.80;1.20;;;10.90;1.00;;;;;;21711630;27;20003;-79
2024/04/21 16:23:05;;;;;;;3.80;1.10;;;11.30;1.00;;;;;;21725570;27;20406;-79
2024/04/21 16:33:06;;;;;;;2.20;1.10;;;10.50;1.00;;;;;;21728570;27;20092;-79
2024/04/21 16:43:07;;;;;;;2.22;1.10;;;9.70;1.00;;;;;;21748739;27;20003;-81
2024/04/21 16:53:09;;;;;;;2.72;1.17;;;9.30;1.00;;;;;;21752806;27;20002;-79
2024/04/21 17:03:11;;;;;;;2.95;1.52;;;9.30;1.00;;;;;;21766715;27;20007;-83
2024/04/21 17:13:12;;;;;;;3.17;1.20;;;9.30;1.00;;;;;;21762956;27;22977;-80
2024/04/21 17:23:13;;;;;;;3.53;1.00;;;9.20;1.00;;;;;;21782666;27;19995;-79
2024/04/21 17:33:14;;;;;;;2.10;0.80;;;9.10;1.00;;;;;;21823632;27;20103;-78
2024/04/21 17:43:14;;;;;;;4.72;2.42;;;8.80;1.00;;;;;;21746702;27;20022;-78
2024/04/21 17:53:15;;;;;;;3.33;1.88;;;8.70;1.00;;;;;;21739668;27;20029;-79
2024/04/21 18:03:16;;;;;;;2.60;1.50;;;8.50;1.00;;;;;;21744842;27;20014;-78
2024/04/21 18:13:19;;;;;;;4.82;1.60;;;8.50;1.00;;;;;;21739399;27;20065;-78
2024/04/21 18:23:20;;;;;;;3.70;1.48;;;8.60;1.00;;;;;;21724310;27;20080;-78
2024/04/21 18:33:21;;;;;;;3.72;1.73;;;8.60;1.00;;;;;;21737155;27;20010;-78
2024/04/21 18:43:22;;;;;;;2.25;1.20;;;8.70;1.00;;;;;;21741333;27;20002;-80
2024/04/21 18:53:23;;;;;;;4.53;2.08;;;8.60;1.00;;;;;;21744594;27;20005;-79
2024/04/21 19:03:25;;;;;;;2.80;1.75;;;8.40;1.00;;;;;;21714189;27;20047;-80
2024/04/21 19:13:26;;;;;;;3.17;1.50;;;8.30;1.00;;;;;;21704464;27;20021;-80
2024/04/21 19:23:27;;;;;;;2.10;1.30;;;8.20;1.00;;;;;;21720013;27;20238;-79
2024/04/21 19:33:28;;;;;;;2.53;1.58;;;8.10;1.00;;;;;;21732756;27;20014;-79
2024/04/21 19:43:29;;;;;;;5.60;2.50;;;8.00;1.00;;;;;;21716954;27;20446;-79
2024/04/21 19:53:30;;;;;;;3.28;1.83;;;8.00;1.00;;;;;;21742467;27;19999;-80
2024/04/21 20:03:31;;;;;;;4.78;2.20;;;7.90;1.00;;;;;;21732937;27;20014;-78
2024/04/21 20:13:32;;;;;;;3.50;2.00;;;7.70;1.00;;;;;;21718916;27;20018;-78
2024/04/21 20:23:34;;;;;;;3.97;2.38;;;7.60;1.00;;;;;;21712536;27;20303;-78
2024/04/21 20:33:35;;;;;;;6.50;4.47;;;7.50;1.00;;;;;;21731321;27;20010;-78
2024/04/21 20:43:36;;;;;;;5.95;3.80;;;7.40;1.00;;;;;;21861765;27;20245;-78
2024/04/21 20:53:37;;;;;;;5.90;3.20;;;7.20;1.00;;;;;;21866921;27;20180;-78
2024/04/21 21:03:38;;;;;;;6.60;2.92;;;7.10;1.00;;;;;;21865372;26;20485;-77
2024/04/21 21:13:39;;;;;;;4.18;2.33;;;6.90;1.00;;;;;;21863335;26;20526;-77
2024/04/21 21:23:40;;;;;;;4.03;2.25;;;6.90;1.00;;;;;;21870018;26;20106;-76
2024/04/21 21:33:41;;;;;;;4.28;2.00;;;6.90;1.00;;;;;;21869899;26;19997;-76
2024/04/21 21:43:42;;;;;;;5.10;2.20;;;6.80;1.00;;;;;;21729125;27;20279;-76
2024/04/21 21:53:43;;;;;;;3.47;2.15;;;6.80;1.00;;;;;;21730721;27;20080;-77
2024/04/21 22:03:44;;;;;;;5.60;2.08;;;6.80;1.00;;;;;;21700573;27;20338;-77
2024/04/21 22:13:48;;;;;;;6.03;2.63;;;6.70;1.00;;;;;;21702443;27;20066;-76
2024/04/21 22:23:49;;;;;;;4.43;2.08;;;6.70;1.00;;;;;;21726242;27;20082;-79
2024/04/21 22:33:50;;;;;;;3.00;1.92;;;6.60;1.00;;;;;;21698976;27;20019;-78
2024/04/21 22:43:50;;;;;;;3.28;2.13;;;6.50;1.00;;;;;;21730411;27;19998;-78
2024/04/21 22:53:51;;;;;;;4.47;2.08;;;6.50;1.00;;;;;;21733367;27;20014;-78
2024/04/21 23:03:54;;;;;;;4.07;2.00;;;6.40;1.00;;;;;;21712196;27;20022;-79
2024/04/21 23:13:55;;;;;;;3.50;2.10;;;6.40;1.00;;;;;;21747364;26;20014;-77
2024/04/21 23:23:56;;;;;;;3.95;2.00;;;6.30;1.00;;;;;;21723551;27;20046;-79
2024/04/21 23:33:58;;;;;;;3.35;1.80;;;6.20;1.00;;;;;;21747736;26;20103;-75
2024/04/21 23:43:59;;;;;;;3.17;1.60;;;6.00;1.00;;;;;;21722996;27;19998;-73
2024/04/21 23:54:00;;;;;;;3.13;1.58;;;5.80;1.00;;;;;;21705231;27;19995;-76
